Time;durP1;ratioP1;P1;durP2;ratioP2;P2;SDS_P1;SDS_P2;PMS_P1;PMS_P2;Temp;Humidity;BMP_temperature;BMP_pressure;BME280_temperature;BME280_humidity;BME280_pressure;Samples;Min_cycle;Max_cycle;Signal;HPM_P1;HPM_P2
2022/09/07 00:01:48;;;;;;;2.28;2.08;;;18.80;99.90;;;;;;6240422;23;20013;-85
2022/09/07 00:04:14;;;;;;;2.35;2.15;;;18.80;99.90;;;;;;6241112;23;20000;-83
2022/09/07 00:06:39;;;;;;;3.42;2.22;;;18.80;99.90;;;;;;6237683;23;20019;-86
2022/09/07 00:09:05;;;;;;;2.88;2.35;;;18.90;99.90;;;;;;6224093;23;20035;-84
2022/09/07 00:11:31;;;;;;;2.65;2.45;;;18.80;99.90;;;;;;6219013;23;20008;-84
2022/09/07 00:13:57;;;;;;;3.35;2.65;;;18.90;99.90;;;;;;6218848;23;20008;-85
2022/09/07 00:16:26;;;;;;;4.07;2.47;;;18.80;99.90;;;;;;6219472;23;20001;-84
2022/09/07 00:18:56;;;;;;;5.97;2.88;;;18.80;99.90;;;;;;6235021;22;20004;-82
2022/09/07 00:21:23;;;;;;;7.00;3.55;;;18.90;99.90;;;;;;6242707;22;20001;-82
2022/09/07 00:23:49;;;;;;;7.20;3.20;;;18.80;99.90;;;;;;6242606;22;20083;-82
2022/09/07 00:26:23;;;;;;;4.97;2.67;;;18.90;99.90;;;;;;6241420;22;20005;-81
2022/09/07 00:28:49;;;;;;;3.60;2.75;;;18.90;99.90;;;;;;6241929;23;19996;-84
2022/09/07 00:31:18;;;;;;;3.42;2.28;;;18.90;99.90;;;;;;6242006;23;19997;-83
2022/09/07 00:33:45;;;;;;;3.10;2.63;;;18.90;99.90;;;;;;6235990;23;20000;-87
2022/09/07 00:36:11;;;;;;;2.95;2.45;;;19.00;99.90;;;;;;6195359;23;20032;-85
2022/09/07 00:38:37;;;;;;;6.85;2.85;;;19.00;99.90;;;;;;6220835;23;19997;-84
2022/09/07 00:41:03;;;;;;;4.43;2.90;;;19.10;99.90;;;;;;6220009;23;20000;-85
2022/09/07 00:43:39;;;;;;;7.32;4.03;;;19.10;99.90;;;;;;6192451;23;20035;-86
2022/09/07 00:46:10;;;;;;;9.90;3.80;;;19.10;99.90;;;;;;6220858;23;20004;-85
2022/09/07 00:48:57;;;;;;;4.07;2.58;;;19.20;99.90;;;;;;6220669;23;20009;-86
2022/09/07 00:51:34;;;;;;;5.47;3.00;;;19.20;99.90;;;;;;6181675;23;20032;-83
2022/09/07 00:54:16;;;;;;;5.18;2.95;;;19.20;99.90;;;;;;6240397;22;19996;-84
2022/09/07 00:56:43;;;;;;;6.37;3.40;;;19.20;99.90;;;;;;6236814;23;20013;-85
2022/09/07 00:59:12;;;;;;;5.43;2.92;;;19.30;99.90;;;;;;6238270;23;20035;-83
2022/09/07 01:01:38;;;;;;;4.90;3.00;;;19.30;99.90;;;;;;6241201;22;20015;-83
2022/09/07 01:04:04;;;;;;;4.95;3.47;;;19.30;99.90;;;;;;6233439;23;20001;-84
2022/09/07 01:06:33;;;;;;;4.80;2.50;;;19.30;99.90;;;;;;6210445;22;20011;-83
2022/09/07 01:09:05;;;;;;;5.57;3.03;;;19.20;99.90;;;;;;6233109;22;20005;-83
2022/09/07 01:11:33;;;;;;;3.00;2.58;;;19.20;99.90;;;;;;6224338;23;20024;-83
2022/09/07 01:14:01;;;;;;;4.20;2.60;;;19.10;99.90;;;;;;6223772;23;20305;-84
2022/09/07 01:17:04;;;;;;;6.93;2.78;;;19.10;99.90;;;;;;6224866;23;20277;-87
2022/09/07 01:19:49;;;;;;;4.82;2.80;;;19.10;99.90;;;;;;6201424;23;20001;-85
2022/09/07 01:22:44;;;;;;;3.75;2.40;;;19.00;99.90;;;;;;6243124;22;20020;-82
2022/09/07 01:25:13;;;;;;;3.15;2.70;;;19.00;99.90;;;;;;6238083;23;19985;-82
2022/09/07 01:27:51;;;;;;;2.30;2.17;;;19.00;99.90;;;;;;6239606;23;20004;-82
2022/09/07 01:30:19;;;;;;;3.22;2.72;;;19.00;99.90;;;;;;6221851;23;20023;-84
2022/09/07 01:32:44;;;;;;;6.90;2.90;;;18.90;99.90;;;;;;6221665;23;20007;-82
2022/09/07 01:35:31;;;;;;;6.25;3.63;;;18.90;99.90;;;;;;6242446;23;20009;-83
2022/09/07 01:38:19;;;;;;;3.22;2.50;;;18.80;99.90;;;;;;6239609;23;20027;-84
2022/09/07 01:41:00;;;;;;;9.93;3.17;;;18.80;99.90;;;;;;6240321;23;20009;-82
2022/09/07 01:43:59;;;;;;;4.90;2.45;;;18.80;99.90;;;;;;6238813;23;20008;-83
2022/09/07 01:46:36;;;;;;;4.15;2.38;;;18.80;99.90;;;;;;6224931;23;20082;-85
2022/09/07 01:49:10;;;;;;;7.40;2.72;;;18.90;99.90;;;;;;6216913;23;20001;-86
2022/09/07 01:51:42;;;;;;;2.40;2.20;;;18.90;99.90;;;;;;6190615;23;20630;-85
2022/09/07 01:54:24;;;;;;;2.72;2.45;;;18.90;99.90;;;;;;6216158;23;20494;-86
2022/09/07 01:56:55;;;;;;;3.75;2.15;;;18.90;99.90;;;;;;6189860;23;20005;-85
2022/09/07 01:59:34;;;;;;;3.20;2.00;;;19.00;99.90;;;;;;6223515;23;20003;-85
2022/09/07 02:02:12;;;;;;;4.07;1.80;;;19.00;99.90;;;;;;6226542;23;20005;-85
2022/09/07 02:04:58;;;;;;;2.13;1.90;;;19.00;99.90;;;;;;6225007;23;20089;-84
2022/09/07 02:07:28;;;;;;;2.72;1.80;;;19.10;99.90;;;;;;6178726;23;20352;-83
2022/09/07 02:10:15;;;;;;;3.75;2.00;;;19.10;99.90;;;;;;6233182;23;20004;-84
2022/09/07 02:12:50;;;;;;;4.57;1.55;;;19.10;99.90;;;;;;6222062;23;20091;-84
2022/09/07 02:15:23;;;;;;;4.03;2.08;;;19.10;99.90;;;;;;6190637;23;20015;-85
2022/09/07 02:17:53;;;;;;;3.05;2.05;;;19.10;99.90;;;;;;6217026;23;19996;-85
2022/09/07 02:20:21;;;;;;;1.85;1.63;;;19.10;99.90;;;;;;6227360;23;19996;-85
2022/09/07 02:22:56;;;;;;;4.05;1.83;;;19.10;99.90;;;;;;6209911;23;19992;-85
2022/09/07 02:25:25;;;;;;;4.78;1.90;;;19.10;99.90;;;;;;6228473;23;20028;-85
2022/09/07 02:28:03;;;;;;;5.60;2.58;;;19.10;99.90;;;;;;6217564;23;20011;-84
2022/09/07 02:30:28;;;;;;;4.28;2.22;;;19.10;99.90;;;;;;6220386;23;20000;-85
2022/09/07 02:32:57;;;;;;;2.28;1.75;;;19.10;99.90;;;;;;6198417;23;20016;-86
2022/09/07 02:35:22;;;;;;;4.78;2.30;;;19.10;99.90;;;;;;6217814;23;19997;-85
2022/09/07 02:37:52;;;;;;;1.95;1.80;;;19.10;99.90;;;;;;6215476;23;20007;-85
2022/09/07 02:40:18;;;;;;;4.25;2.05;;;19.00;99.90;;;;;;6216223;23;19996;-84
2022/09/07 02:42:46;;;;;;;3.75;1.70;;;18.90;99.90;;;;;;6217104;23;20483;-84
2022/09/07 02:45:13;;;;;;;3.17;1.90;;;18.80;99.90;;;;;;6190160;23;20423;-85
2022/09/07 02:47:51;;;;;;;2.85;1.95;;;18.80;99.90;;;;;;6215961;23;20004;-85
2022/09/07 02:50:39;;;;;;;4.95;2.13;;;18.80;99.90;;;;;;6216873;23;20011;-84
2022/09/07 02:53:23;;;;;;;2.63;1.48;;;18.70;99.90;;;;;;6216887;23;20439;-84
2022/09/07 02:56:16;;;;;;;2.88;1.80;;;18.60;99.90;;;;;;6216037;23;20005;-85
2022/09/07 02:59:04;;;;;;;2.17;1.98;;;18.60;99.90;;;;;;6189368;23;20007;-86
2022/09/07 03:01:33;;;;;;;3.53;2.40;;;18.60;99.90;;;;;;6216355;23;20000;-84
2022/09/07 03:04:27;;;;;;;2.38;1.90;;;18.60;99.90;;;;;;6217736;23;20482;-85
2022/09/07 03:07:16;;;;;;;2.30;1.70;;;18.60;99.90;;;;;;6215766;23;20443;-85
2022/09/07 03:09:46;;;;;;;3.55;1.85;;;18.60;99.90;;;;;;6216787;23;20335;-85
2022/09/07 03:12:12;;;;;;;3.38;1.80;;;18.60;99.90;;;;;;6216591;23;20011;-85
2022/09/07 03:14:42;;;;;;;3.10;2.17;;;18.60;99.90;;;;;;6217146;23;20000;-85
2022/09/07 03:17:08;;;;;;;2.05;1.85;;;18.60;99.90;;;;;;6190438;23;20001;-85
2022/09/07 03:19:34;;;;;;;2.38;1.80;;;18.60;99.90;;;;;;6217613;23;20016;-85
2022/09/07 03:22:00;;;;;;;2.35;1.90;;;18.60;99.90;;;;;;6226683;23;20005;-85
2022/09/07 03:24:26;;;;;;;1.75;1.60;;;18.60;99.90;;;;;;6201520;23;20047;-85
2022/09/07 03:26:52;;;;;;;1.55;1.45;;;18.60;99.90;;;;;;6217549;23;20475;-84
2022/09/07 03:29:18;;;;;;;1.77;1.67;;;18.60;99.90;;;;;;6238282;23;20000;-84
2022/09/07 03:31:44;;;;;;;1.95;1.30;;;18.60;99.90;;;;;;6217945;23;20013;-85
2022/09/07 03:34:10;;;;;;;3.53;1.65;;;18.60;99.90;;;;;;6216936;23;20001;-86
2022/09/07 03:36:36;;;;;;;2.70;1.80;;;18.70;99.90;;;;;;6223596;23;20004;-84
2022/09/07 03:39:03;;;;;;;3.50;1.58;;;18.60;99.90;;;;;;6222076;23;19996;-85
2022/09/07 03:41:29;;;;;;;2.65;1.90;;;18.60;99.90;;;;;;6218208;23;20024;-85
2022/09/07 03:43:55;;;;;;;2.22;1.85;;;18.60;99.90;;;;;;6227475;23;20012;-86
2022/09/07 03:46:21;;;;;;;2.67;1.52;;;18.60;99.90;;;;;;6216125;23;20024;-85
2022/09/07 03:48:47;;;;;;;3.08;1.70;;;18.60;99.90;;;;;;6216558;23;20068;-85
2022/09/07 03:51:15;;;;;;;3.55;2.00;;;18.60;99.90;;;;;;6202140;23;20012;-85
2022/09/07 03:53:43;;;;;;;2.05;1.73;;;18.50;99.90;;;;;;6216396;23;20050;-86
2022/09/07 03:56:11;;;;;;;2.38;1.58;;;18.50;99.90;;;;;;6213922;23;20012;-84
2022/09/07 03:58:37;;;;;;;2.35;1.85;;;18.50;99.90;;;;;;6188742;23;20024;-85
2022/09/07 04:01:10;;;;;;;1.90;1.70;;;18.50;99.90;;;;;;6215976;23;20005;-85
2022/09/07 04:03:36;;;;;;;1.73;1.63;;;18.50;99.90;;;;;;6189333;23;20016;-83
2022/09/07 04:06:03;;;;;;;1.60;1.50;;;18.50;99.90;;;;;;6215565;23;20005;-82
2022/09/07 04:08:30;;;;;;;1.70;1.40;;;18.50;99.90;;;;;;6216230;23;20020;-85
2022/09/07 04:10:58;;;;;;;1.50;1.38;;;18.50;99.90;;;;;;6215564;23;20008;-85
2022/09/07 04:13:24;;;;;;;1.40;1.30;;;18.60;99.90;;;;;;6215881;23;20000;-85
2022/09/07 04:15:50;;;;;;;1.90;1.40;;;18.60;99.90;;;;;;6219841;23;19996;-84
2022/09/07 04:18:16;;;;;;;1.55;1.45;;;18.60;99.90;;;;;;6224679;23;20001;-83
2022/09/07 04:20:43;;;;;;;1.73;1.63;;;18.60;99.90;;;;;;6218177;23;20001;-85
2022/09/07 04:23:08;;;;;;;2.22;1.70;;;18.60;99.90;;;;;;6215914;23;20424;-85
2022/09/07 04:25:34;;;;;;;2.47;1.50;;;18.60;99.90;;;;;;6216038;23;20040;-84
2022/09/07 04:28:00;;;;;;;1.45;1.38;;;18.60;99.90;;;;;;6216019;23;20005;-85
2022/09/07 04:30:26;;;;;;;1.67;1.58;;;18.60;99.90;;;;;;6217239;23;20004;-84
2022/09/07 04:32:52;;;;;;;1.92;1.67;;;18.60;99.90;;;;;;6218005;23;20087;-85
2022/09/07 04:35:17;;;;;;;2.65;1.60;;;18.60;99.90;;;;;;6217571;23;20047;-85
2022/09/07 04:37:44;;;;;;;2.10;1.90;;;18.60;99.90;;;;;;6217189;23;20462;-85
2022/09/07 04:40:10;;;;;;;1.73;1.52;;;18.60;99.90;;;;;;6229916;23;19997;-83
2022/09/07 04:42:36;;;;;;;4.07;2.58;;;18.60;99.90;;;;;;6240017;23;20015;-82
2022/09/07 04:45:03;;;;;;;1.85;1.75;;;18.60;99.90;;;;;;6237170;23;20012;-83
2022/09/07 04:47:31;;;;;;;3.78;1.70;;;18.60;99.90;;;;;;6222742;23;20008;-83
2022/09/07 04:49:57;;;;;;;4.90;2.03;;;18.60;99.90;;;;;;6191083;23;20004;-84
2022/09/07 04:52:23;;;;;;;1.65;1.55;;;18.60;99.90;;;;;;6221759;23;20045;-84
2022/09/07 04:55:39;;;;;;;2.75;1.80;;;18.60;99.90;;;;;;6189136;23;21472;-88
2022/09/07 04:58:37;;;;;;;2.58;1.60;;;18.60;99.90;;;;;;6217940;23;20241;-86
2022/09/07 05:01:24;;;;;;;2.13;1.92;;;18.60;99.90;;;;;;6217943;22;20013;-86
2022/09/07 05:04:11;;;;;;;4.65;1.67;;;18.60;99.90;;;;;;6236395;23;20012;-85
2022/09/07 05:06:40;;;;;;;2.50;1.38;;;18.60;99.90;;;;;;6207147;23;20046;-85
2022/09/07 05:09:37;;;;;;;4.93;2.03;;;18.60;99.90;;;;;;6206204;23;20000;-84
2022/09/07 05:12:07;;;;;;;2.05;1.67;;;18.70;99.90;;;;;;6196623;23;20036;-85
2022/09/07 05:14:33;;;;;;;4.63;1.95;;;18.70;99.90;;;;;;6193655;23;20340;-84
2022/09/07 05:17:00;;;;;;;5.35;2.13;;;18.80;99.90;;;;;;6192798;23;20369;-84
2022/09/07 05:19:31;;;;;;;1.50;1.40;;;18.80;99.90;;;;;;6195045;23;20020;-84
2022/09/07 05:21:59;;;;;;;1.60;1.40;;;18.90;99.90;;;;;;6195342;23;20005;-84
2022/09/07 05:24:27;;;;;;;4.45;1.58;;;18.90;99.70;;;;;;6192511;23;20020;-85
2022/09/07 05:26:54;;;;;;;3.28;1.73;;;19.00;99.40;;;;;;6191219;23;20005;-85
2022/09/07 05:29:20;;;;;;;1.80;1.27;;;19.00;98.90;;;;;;6191829;23;20005;-84
2022/09/07 05:31:58;;;;;;;3.63;1.67;;;19.10;98.50;;;;;;6192880;23;20040;-85
2022/09/07 05:34:29;;;;;;;2.88;1.63;;;19.10;98.30;;;;;;6192544;23;20328;-86
2022/09/07 05:37:22;;;;;;;1.80;1.50;;;19.10;98.30;;;;;;6192075;23;20013;-84
2022/09/07 05:39:48;;;;;;;2.08;1.48;;;19.20;98.10;;;;;;6180147;23;20025;-85
2022/09/07 05:42:16;;;;;;;1.58;1.48;;;19.20;98.10;;;;;;6195143;23;20005;-85
2022/09/07 05:44:47;;;;;;;9.02;1.92;;;19.10;97.90;;;;;;6198579;23;20343;-84
2022/09/07 05:47:13;;;;;;;4.03;1.50;;;19.10;97.80;;;;;;6196523;23;20139;-84
2022/09/07 05:49:40;;;;;;;2.13;1.35;;;19.10;97.70;;;;;;6193087;23;20100;-84
2022/09/07 05:52:14;;;;;;;3.78;1.90;;;19.10;97.70;;;;;;6201820;23;20005;-85
2022/09/07 05:54:47;;;;;;;1.70;1.30;;;19.10;97.70;;;;;;6191801;23;20064;-85
2022/09/07 05:57:13;;;;;;;2.80;1.70;;;19.20;97.70;;;;;;6192151;23;20032;-84
2022/09/07 05:59:44;;;;;;;3.97;1.75;;;19.30;97.80;;;;;;6192432;23;20088;-84
2022/09/07 06:02:14;;;;;;;1.75;1.30;;;19.30;97.80;;;;;;6194356;23;20063;-84
2022/09/07 06:04:43;;;;;;;1.75;1.40;;;19.30;97.70;;;;;;6175678;23;20040;-85
2022/09/07 06:07:17;;;;;;;1.60;1.50;;;19.30;97.50;;;;;;6171081;23;20012;-84
2022/09/07 06:09:53;;;;;;;2.90;1.70;;;19.40;97.20;;;;;;6183650;23;20020;-85
2022/09/07 06:51:47;;;;;;;2.25;1.30;;;21.00;94.10;;;;;;6021237;23;20061;-86
2022/09/07 07:09:58;;;;;;;5.90;2.08;;;21.90;92.20;;;;;;6224216;23;20024;-86
2022/09/07 07:12:49;;;;;;;2.83;2.00;;;22.00;90.80;;;;;;6225238;23;20012;-84
2022/09/07 07:15:28;;;;;;;4.03;2.10;;;22.10;90.40;;;;;;6220795;23;20107;-85
2022/09/07 07:17:58;;;;;;;4.50;1.85;;;22.20;89.50;;;;;;6226807;23;20007;-85
2022/09/07 07:20:28;;;;;;;2.10;1.83;;;22.10;89.30;;;;;;6200086;23;20015;-85
2022/09/07 07:23:06;;;;;;;2.55;1.77;;;22.00;89.40;;;;;;6199854;23;20261;-84
2022/09/07 07:25:46;;;;;;;2.67;1.90;;;22.00;90.00;;;;;;6147327;23;20083;-84
2022/09/07 07:28:41;;;;;;;2.25;1.73;;;21.90;90.40;;;;;;6198218;23;20027;-84
2022/09/07 07:31:10;;;;;;;3.58;1.98;;;22.00;90.60;;;;;;6198774;23;20012;-84
2022/09/07 07:33:39;;;;;;;6.25;2.17;;;22.00;90.50;;;;;;6225842;23;20001;-85
2022/09/07 07:36:19;;;;;;;4.10;2.17;;;22.30;90.00;;;;;;6197886;23;20012;-85
2022/09/07 07:38:52;;;;;;;2.20;1.75;;;22.50;89.60;;;;;;6202794;23;19992;-86
2022/09/07 07:41:23;;;;;;;1.75;1.50;;;22.80;88.60;;;;;;6203346;23;20009;-85
2022/09/07 07:43:57;;;;;;;7.05;2.10;;;23.20;87.40;;;;;;6196511;23;20028;-84
2022/09/07 07:46:26;;;;;;;3.58;1.40;;;23.50;85.30;;;;;;6195937;23;20431;-84
2022/09/07 07:48:52;;;;;;;3.70;1.80;;;23.40;84.70;;;;;;6195452;23;20011;-84
2022/09/07 07:51:18;;;;;;;3.67;1.88;;;23.60;84.00;;;;;;6193342;23;20004;-85
2022/09/07 07:53:45;;;;;;;4.45;2.20;;;23.80;82.60;;;;;;6195240;23;20012;-85
2022/09/07 07:56:21;;;;;;;5.40;1.85;;;24.00;80.40;;;;;;6199086;23;20293;-84
2022/09/07 07:58:47;;;;;;;4.32;1.65;;;24.00;77.60;;;;;;6199403;23;20001;-85
2022/09/07 08:01:18;;;;;;;3.63;1.40;;;24.10;77.80;;;;;;6226013;23;20031;-85
2022/09/07 08:03:48;;;;;;;4.53;1.65;;;24.30;77.40;;;;;;6199781;23;20013;-84
2022/09/07 08:06:20;;;;;;;4.38;1.58;;;24.30;75.80;;;;;;6199640;23;20446;-83
2022/09/07 08:08:49;;;;;;;1.95;1.67;;;24.30;75.70;;;;;;6203262;23;20091;-86
2022/09/07 08:11:21;;;;;;;2.75;1.60;;;24.40;75.00;;;;;;6207274;23;20008;-85
2022/09/07 08:13:49;;;;;;;2.58;1.90;;;24.30;74.90;;;;;;6227683;23;20016;-85
2022/09/07 08:16:21;;;;;;;4.90;2.58;;;24.20;74.30;;;;;;6200457;23;20059;-84
2022/09/07 08:19:01;;;;;;;7.35;2.05;;;24.10;75.20;;;;;;6229511;23;20217;-85
2022/09/07 08:21:29;;;;;;;5.93;1.90;;;24.00;75.60;;;;;;6204781;23;20007;-85
2022/09/07 08:23:58;;;;;;;2.03;1.30;;;24.00;75.20;;;;;;6227908;23;19997;-85
2022/09/07 08:26:30;;;;;;;6.07;2.08;;;24.20;75.50;;;;;;6201759;23;20495;-85
2022/09/07 08:31:50;;;;;;;4.88;1.98;;;24.40;74.10;;;;;;6217927;23;19910;-85
2022/09/07 08:34:16;;;;;;;3.08;1.63;;;24.50;73.60;;;;;;6226438;23;20000;-86
2022/09/07 08:36:42;;;;;;;6.57;1.83;;;24.50;73.50;;;;;;6207557;23;20079;-85
2022/09/07 08:39:09;;;;;;;7.88;1.73;;;24.60;72.80;;;;;;6214026;23;19996;-84
2022/09/07 08:42:20;;;;;;;3.08;1.33;;;24.40;72.60;;;;;;6211652;23;20001;-84
2022/09/07 08:45:13;;;;;;;3.35;1.88;;;24.30;73.70;;;;;;6107105;23;20007;-86
2022/09/07 08:56:55;;;;;;;4.63;1.83;;;25.20;71.80;;;;;;6213336;23;20005;-87
2022/09/07 09:00:25;;;;;;;4.75;1.90;;;25.30;71.40;;;;;;6121825;23;19998;-89
2022/09/07 09:03:42;;;;;;;5.20;2.20;;;25.40;70.30;;;;;;6005355;23;20023;-83
2022/09/07 09:13:40;;;;;;;2.30;1.60;;;26.40;67.40;;;;;;6102660;23;20058;-84
2022/09/07 09:17:00;;;;;;;4.00;2.05;;;26.20;66.10;;;;;;6167627;23;19998;-83
2022/09/07 09:20:25;;;;;;;3.80;1.60;;;26.00;67.20;;;;;;6175265;23;20037;-83
2022/09/07 09:23:38;;;;;;;7.95;1.95;;;26.10;66.50;;;;;;6191157;23;20009;-82
2022/09/07 09:27:10;;;;;;;4.10;1.77;;;26.30;65.50;;;;;;6114774;23;20054;-84
2022/09/07 09:29:39;;;;;;;2.90;1.37;;;26.50;65.60;;;;;;6135361;23;20058;-83
2022/09/07 09:32:40;;;;;;;6.95;2.35;;;26.60;64.70;;;;;;6165247;23;20009;-81
2022/09/07 09:35:36;;;;;;;4.13;1.45;;;26.80;64.10;;;;;;6165978;23;20001;-84
2022/09/07 09:38:02;;;;;;;4.20;1.48;;;27.00;63.10;;;;;;6165622;23;20008;-83
2022/09/07 09:40:34;;;;;;;2.33;1.30;;;27.10;62.90;;;;;;6164841;23;20384;-84
2022/09/07 09:43:01;;;;;;;1.90;1.30;;;27.20;62.90;;;;;;6193260;23;20005;-82
2022/09/07 09:45:30;;;;;;;5.90;1.67;;;27.20;62.10;;;;;;6166461;23;20005;-82
2022/09/07 09:47:57;;;;;;;2.60;1.35;;;27.30;62.10;;;;;;6165609;23;20013;-83
2022/09/07 09:50:39;;;;;;;3.65;1.45;;;27.40;59.70;;;;;;6167223;23;20196;-83
2022/09/07 09:53:06;;;;;;;5.60;1.70;;;27.50;60.50;;;;;;6203062;23;20027;-85
2022/09/07 09:55:34;;;;;;;6.40;1.60;;;27.60;58.80;;;;;;6186473;23;20004;-87
2022/09/07 09:58:21;;;;;;;4.28;1.10;;;27.80;59.30;;;;;;6211380;23;19997;-87
2022/09/07 10:01:02;;;;;;;1.58;1.10;;;27.90;58.40;;;;;;6184639;23;20024;-87
2022/09/07 10:03:30;;;;;;;4.65;1.30;;;28.20;58.10;;;;;;6211927;23;19989;-86
2022/09/07 10:05:56;;;;;;;1.92;1.17;;;28.30;57.90;;;;;;6211477;23;20032;-87
2022/09/07 10:08:25;;;;;;;2.47;1.33;;;28.30;57.50;;;;;;6185513;23;19997;-85
2022/09/07 10:11:07;;;;;;;2.38;1.25;;;28.20;58.10;;;;;;6179655;23;20329;-83
2022/09/07 10:13:54;;;;;;;4.63;1.25;;;28.30;57.50;;;;;;6192136;23;20064;-82
2022/09/07 10:16:39;;;;;;;7.68;1.60;;;28.10;57.70;;;;;;6201968;23;20034;-87
2022/09/07 10:19:04;;;;;;;2.55;1.13;;;27.80;58.00;;;;;;6185433;23;20028;-84
2022/09/07 10:21:31;;;;;;;3.25;1.60;;;27.40;58.60;;;;;;6185514;23;19997;-87
2022/09/07 10:23:56;;;;;;;1.73;1.25;;;27.00;59.60;;;;;;6184795;23;20448;-86
2022/09/07 10:26:27;;;;;;;3.15;1.48;;;26.80;60.30;;;;;;6183931;23;20009;-86
2022/09/07 10:29:13;;;;;;;2.40;0.90;;;26.70;60.10;;;;;;6210785;23;20016;-87
2022/09/07 10:31:55;;;;;;;3.47;1.30;;;26.50;60.90;;;;;;6177194;23;20005;-83
2022/09/07 10:34:27;;;;;;;;;;;26.20;62.30;;;;;;6199693;23;20004;-85
2022/09/07 10:37:02;;;;;;;3.33;1.50;;;26.20;62.20;;;;;;6168551;23;19911;-82
2022/09/07 10:40:26;;;;;;;2.28;1.40;;;26.50;62.00;;;;;;6190471;23;20077;-83
2022/09/07 10:43:01;;;;;;;3.50;1.20;;;26.60;61.00;;;;;;6068601;23;20011;-82
2022/09/07 10:45:43;;;;;;;1.52;1.35;;;26.90;61.30;;;;;;6172425;23;20009;-84
2022/09/07 10:48:17;;;;;;;5.40;1.50;;;27.00;60.70;;;;;;6199357;23;20027;-82
2022/09/07 10:50:50;;;;;;;2.92;1.35;;;27.10;60.30;;;;;;6191099;23;20023;-83
2022/09/07 10:53:21;;;;;;;5.35;1.60;;;27.20;60.50;;;;;;6164123;23;20005;-83
2022/09/07 10:56:04;;;;;;;5.63;1.20;;;27.20;60.40;;;;;;6208039;23;20062;-85
2022/09/07 10:58:42;;;;;;;4.95;1.35;;;27.10;60.70;;;;;;6225527;23;19997;-85
2022/09/07 11:01:30;;;;;;;2.67;1.42;;;27.00;61.00;;;;;;6199897;23;19989;-85
2022/09/07 11:04:00;;;;;;;4.15;1.15;;;27.00;61.20;;;;;;6222839;23;20000;-86
2022/09/07 11:06:36;;;;;;;2.50;1.23;;;27.20;61.10;;;;;;6222837;23;20019;-84
2022/09/07 11:09:10;;;;;;;2.65;1.20;;;27.40;60.50;;;;;;6196638;23;20008;-85
2022/09/07 11:11:44;;;;;;;1.85;1.20;;;27.50;59.70;;;;;;6226139;23;20009;-84
2022/09/07 11:14:22;;;;;;;3.00;1.85;;;27.50;59.80;;;;;;6198010;23;20419;-84
2022/09/07 11:16:54;;;;;;;3.92;1.50;;;27.60;59.70;;;;;;6224465;23;20120;-85
2022/09/07 11:19:23;;;;;;;5.82;1.67;;;27.60;60.00;;;;;;6195757;23;20031;-87
2022/09/07 11:22:04;;;;;;;3.70;1.20;;;27.60;60.00;;;;;;6196041;23;20339;-84
2022/09/07 11:24:40;;;;;;;3.63;1.65;;;27.60;60.20;;;;;;6223775;23;20001;-85
2022/09/07 11:27:14;;;;;;;3.30;1.77;;;27.60;60.30;;;;;;6221927;23;19997;-83
2022/09/07 11:29:49;;;;;;;3.83;1.60;;;27.60;60.30;;;;;;6222356;23;19996;-86
2022/09/07 11:32:20;;;;;;;4.13;1.60;;;27.60;60.30;;;;;;6221352;23;20001;-86
2022/09/07 11:34:52;;;;;;;1.63;1.10;;;27.40;60.60;;;;;;6195725;23;20001;-84
2022/09/07 11:37:46;;;;;;;2.30;1.55;;;27.40;60.60;;;;;;6223611;23;20521;-85
2022/09/07 11:40:32;;;;;;;2.78;1.67;;;27.40;60.80;;;;;;6198943;23;20001;-86
2022/09/07 11:43:21;;;;;;;2.33;1.58;;;27.40;60.90;;;;;;6203277;23;20071;-86
2022/09/07 11:45:58;;;;;;;3.63;1.42;;;27.50;61.00;;;;;;6200818;23;20008;-85
2022/09/07 11:48:47;;;;;;;4.45;1.63;;;27.50;60.50;;;;;;6199157;23;20014;-85
2022/09/07 11:51:43;;;;;;;4.18;1.67;;;27.40;60.80;;;;;;6201972;23;20009;-86
2022/09/07 11:54:30;;;;;;;2.83;1.75;;;27.50;61.00;;;;;;6230711;23;20031;-86
2022/09/07 11:57:21;;;;;;;3.78;1.23;;;27.60;60.90;;;;;;6203284;23;20069;-85
2022/09/07 12:00:10;;;;;;;2.83;1.50;;;27.70;61.00;;;;;;6168277;23;20032;-84
2022/09/07 12:03:12;;;;;;;5.57;1.48;;;27.90;60.80;;;;;;6200316;23;20001;-86
2022/09/07 12:05:47;;;;;;;2.90;1.60;;;28.20;59.40;;;;;;6228468;23;19995;-86
2022/09/07 12:08:13;;;;;;;3.17;1.67;;;28.50;58.90;;;;;;6201610;23;20091;-86
2022/09/07 12:11:00;;;;;;;2.83;1.75;;;28.70;58.50;;;;;;6208637;23;20016;-85
2022/09/07 12:13:52;;;;;;;2.38;1.50;;;28.90;57.80;;;;;;6230550;23;20004;-85
2022/09/07 12:16:35;;;;;;;;;;;28.90;57.30;;;;;;6159202;23;20008;-83
2022/09/07 12:19:13;;;;;;;1.77;1.55;;;28.90;57.60;;;;;;6204178;23;19904;-84
2022/09/07 12:21:53;;;;;;;3.95;1.67;;;29.00;57.50;;;;;;6203444;23;19988;-86
2022/09/07 12:25:03;;;;;;;3.47;1.50;;;29.10;57.80;;;;;;6229869;23;20004;-84
2022/09/07 12:27:29;;;;;;;4.70;2.10;;;29.20;56.90;;;;;;6221437;23;20008;-84
2022/09/07 12:30:00;;;;;;;3.45;1.67;;;29.10;57.50;;;;;;6204106;23;19989;-84
2022/09/07 12:32:47;;;;;;;6.33;1.80;;;29.20;57.40;;;;;;6228988;23;20460;-84
2022/09/07 12:35:40;;;;;;;3.28;1.42;;;29.10;57.60;;;;;;6228331;23;20427;-85
2022/09/07 12:38:12;;;;;;;2.47;1.30;;;29.00;57.90;;;;;;6201314;23;20004;-84
2022/09/07 12:40:38;;;;;;;1.15;1.05;;;29.10;58.00;;;;;;6231285;23;20343;-84
2022/09/07 12:43:12;;;;;;;1.50;1.20;;;29.20;57.50;;;;;;6229124;23;20004;-85
2022/09/07 12:45:38;;;;;;;3.58;1.40;;;29.30;57.30;;;;;;6201857;23;20004;-85
2022/09/07 12:48:16;;;;;;;2.90;1.52;;;29.20;57.30;;;;;;6227537;23;20068;-85
2022/09/07 12:51:09;;;;;;;2.58;1.77;;;29.30;57.40;;;;;;6228778;23;20331;-85
2022/09/07 12:53:50;;;;;;;5.22;1.60;;;29.40;56.20;;;;;;6200834;23;20079;-84
2022/09/07 12:56:42;;;;;;;4.03;1.80;;;29.50;56.10;;;;;;6227262;23;20023;-84
2022/09/07 12:59:32;;;;;;;1.15;1.00;;;29.70;55.80;;;;;;6200835;23;20288;-84
2022/09/07 13:02:28;;;;;;;3.75;1.40;;;29.60;56.00;;;;;;6230493;23;20027;-84
2022/09/07 13:04:57;;;;;;;3.42;1.63;;;29.80;55.80;;;;;;6235578;23;20084;-84
2022/09/07 13:08:00;;;;;;;4.13;1.35;;;29.80;54.90;;;;;;6238952;23;20009;-84
2022/09/07 13:10:36;;;;;;;5.13;1.42;;;29.80;55.10;;;;;;6201741;23;20016;-84
2022/09/07 13:13:16;;;;;;;4.10;1.48;;;29.60;55.70;;;;;;6201003;23;20378;-84
2022/09/07 13:16:12;;;;;;;5.72;1.75;;;29.70;54.70;;;;;;6226452;23;19997;-85
2022/09/07 13:18:42;;;;;;;4.85;1.85;;;29.80;54.20;;;;;;6205490;23;20001;-83
2022/09/07 13:21:08;;;;;;;2.28;1.30;;;29.90;54.30;;;;;;6236373;23;20376;-83
2022/09/07 13:23:37;;;;;;;1.38;1.10;;;30.20;54.60;;;;;;6236751;23;19999;-84
2022/09/07 13:26:07;;;;;;;4.78;2.72;;;30.40;54.40;;;;;;6238248;23;20012;-84
2022/09/07 13:28:57;;;;;;;3.58;1.48;;;30.50;54.10;;;;;;6211501;23;20047;-82
2022/09/07 13:31:58;;;;;;;3.05;1.42;;;30.50;53.80;;;;;;6211030;23;20008;-83
2022/09/07 13:34:33;;;;;;;2.13;1.58;;;30.50;53.80;;;;;;6211702;23;20003;-83
2022/09/07 13:37:00;;;;;;;3.97;1.50;;;30.10;54.10;;;;;;6237504;23;20036;-83
2022/09/07 13:39:29;;;;;;;2.63;1.52;;;29.80;54.30;;;;;;6235850;23;20478;-84
2022/09/07 13:41:57;;;;;;;0.95;0.95;;;29.40;54.90;;;;;;6242116;23;20044;-83
2022/09/07 13:44:30;;;;;;;2.33;1.90;;;29.60;55.70;;;;;;6215577;23;19993;-83
2022/09/07 13:46:59;;;;;;;3.45;1.80;;;30.10;55.00;;;;;;6241544;23;20001;-83
2022/09/07 13:49:33;;;;;;;3.33;1.30;;;30.60;53.80;;;;;;6240237;23;20012;-85
2022/09/07 13:52:27;;;;;;;1.98;1.63;;;30.40;53.80;;;;;;6229583;23;20000;-85
2022/09/07 13:55:23;;;;;;;4.75;1.88;;;29.90;54.50;;;;;;6167735;23;20021;-85
2022/09/07 13:58:04;;;;;;;3.65;1.90;;;29.90;54.60;;;;;;6226085;23;20473;-85
2022/09/07 14:00:30;;;;;;;4.82;1.67;;;29.30;55.50;;;;;;6198690;23;20035;-85
2022/09/07 14:03:04;;;;;;;1.95;1.48;;;28.60;56.60;;;;;;6225443;23;20035;-85
2022/09/07 14:05:29;;;;;;;2.45;1.55;;;28.20;57.70;;;;;;6222443;23;20000;-85
2022/09/07 14:07:55;;;;;;;4.95;1.60;;;28.00;58.00;;;;;;6225427;23;20035;-83
2022/09/07 14:10:23;;;;;;;2.80;1.20;;;28.20;57.60;;;;;;6196919;23;20008;-83
2022/09/07 14:13:10;;;;;;;4.45;1.38;;;28.60;56.20;;;;;;6198463;23;20027;-84
2022/09/07 14:15:43;;;;;;;3.60;1.48;;;28.80;55.50;;;;;;6223067;23;20111;-85
2022/09/07 14:18:21;;;;;;;2.38;1.27;;;28.90;55.60;;;;;;6225348;23;20001;-85
2022/09/07 14:20:51;;;;;;;2.25;1.40;;;29.00;55.60;;;;;;6223902;23;20458;-84
2022/09/07 14:23:40;;;;;;;2.90;1.65;;;28.90;55.60;;;;;;6199311;23;20087;-85
2022/09/07 14:26:14;;;;;;;1.85;1.27;;;29.00;55.20;;;;;;6196997;23;20019;-85
2022/09/07 14:28:41;;;;;;;3.40;1.70;;;29.20;54.90;;;;;;6225996;23;20058;-85
2022/09/07 14:31:10;;;;;;;2.50;1.23;;;29.40;54.40;;;;;;6198352;23;20482;-84
2022/09/07 14:33:37;;;;;;;6.60;1.58;;;29.70;53.80;;;;;;6197689;23;20005;-84
2022/09/07 14:36:04;;;;;;;3.03;1.38;;;29.50;53.40;;;;;;6224250;23;20016;-84
2022/09/07 14:38:32;;;;;;;3.70;1.50;;;29.40;53.90;;;;;;6197890;23;20366;-84
2022/09/07 14:41:17;;;;;;;1.38;1.27;;;29.40;53.90;;;;;;6197271;23;20036;-84
2022/09/07 14:43:55;;;;;;;3.03;1.50;;;29.40;53.70;;;;;;6234031;23;20027;-84
2022/09/07 14:46:22;;;;;;;3.88;2.10;;;29.90;53.20;;;;;;6204227;23;20012;-84